Time;durP1;ratioP1;P1;durP2;ratioP2;P2;SDS_P1;SDS_P2;PMS_P1;PMS_P2;Temp;Humidity;BMP_temperature;BMP_pressure;BME280_temperature;BME280_humidity;BME280_pressure;Samples;Min_cycle;Max_cycle;Signal;HPM_P1;HPM_P2
2022/01/30 00:00:47;;;;;;;0.60;0.60;;;8.10;89.60;7.40;99117.00;;;;5115456;28;20264;-80
2022/01/30 00:03:15;;;;;;;0.60;0.60;;;8.10;90.00;7.30;99090.00;;;;5115506;28;20197;-80
2022/01/30 00:05:44;;;;;;;0.90;0.90;;;8.10;90.30;7.40;99117.00;;;;5115345;28;20219;-80
2022/01/30 00:08:10;;;;;;;0.60;0.60;;;8.20;90.10;7.50;99110.00;;;;5115147;28;20645;-80
2022/01/30 00:10:39;;;;;;;0.70;0.70;;;8.20;90.10;7.50;99107.00;;;;5115360;28;20198;-79
2022/01/30 00:13:10;;;;;;;0.60;0.60;;;8.30;89.80;7.60;99111.00;;;;5115155;28;20202;-80
2022/01/30 00:15:41;;;;;;;0.70;0.70;;;8.30;90.10;7.50;99132.00;;;;5115156;28;20217;-80
2022/01/30 00:18:38;;;;;;;0.50;0.50;;;8.30;90.50;7.60;99115.00;;;;5097251;28;20634;-79
2022/01/30 00:21:10;;;;;;;0.60;0.60;;;8.30;90.40;7.60;99114.00;;;;5115175;28;20213;-78
2022/01/30 00:23:44;;;;;;;0.60;0.60;;;8.30;90.60;7.50;99107.00;;;;5115200;28;20270;-80
2022/01/30 00:26:14;;;;;;;0.70;0.70;;;8.30;90.80;7.60;99121.00;;;;5115038;28;20271;-81
2022/01/30 00:28:40;;;;;;;0.50;0.50;;;8.40;90.90;7.60;99114.00;;;;5115034;28;20190;-82
2022/01/30 00:31:08;;;;;;;0.80;0.80;;;8.30;90.80;7.60;99128.00;;;;5115024;28;20287;-81
2022/01/30 00:33:35;;;;;;;0.57;0.57;;;8.30;90.90;7.60;99110.00;;;;5114965;28;20242;-79
2022/01/30 00:36:01;;;;;;;0.53;0.53;;;8.30;91.20;7.60;99123.00;;;;5114989;28;20227;-79
2022/01/30 00:38:28;;;;;;;0.87;0.87;;;8.30;91.10;7.60;99111.00;;;;5115026;28;20210;-81
2022/01/30 00:40:55;;;;;;;0.80;0.80;;;8.30;91.00;7.60;99101.00;;;;5115019;28;20233;-81
2022/01/30 00:43:22;;;;;;;0.60;0.60;;;8.40;90.90;7.70;99099.00;;;;5114841;28;20186;-81
2022/01/30 00:45:48;;;;;;;0.60;0.60;;;8.40;90.60;7.70;99102.00;;;;5114623;28;20230;-81
2022/01/30 00:48:18;;;;;;;0.70;0.70;;;8.50;90.80;7.60;99102.00;;;;5114927;28;20663;-80
2022/01/30 00:50:45;;;;;;;0.90;0.90;;;8.40;91.20;7.70;99098.00;;;;5114725;28;20224;-79
2022/01/30 00:53:12;;;;;;;0.60;0.60;;;8.40;91.50;7.70;99105.00;;;;5114934;28;20238;-78
2022/01/30 00:55:39;;;;;;;0.80;0.80;;;8.40;91.60;7.70;99064.00;;;;5114630;28;20220;-83
2022/01/30 00:58:05;;;;;;;0.70;0.70;;;8.40;92.50;7.50;99113.00;;;;5114777;28;20284;-79
2022/01/30 01:00:34;;;;;;;0.73;0.73;;;8.40;92.20;7.50;99092.00;;;;5114804;28;20284;-83
2022/01/30 01:03:01;;;;;;;1.00;1.00;;;8.30;92.70;7.60;99124.00;;;;5114647;28;20643;-79
2022/01/30 01:05:30;;;;;;;0.50;0.50;;;8.30;92.70;7.60;99127.00;;;;5096770;28;20244;-80
2022/01/30 01:08:00;;;;;;;0.60;0.60;;;8.30;92.30;7.70;99109.00;;;;5114447;28;20293;-81
2022/01/30 01:10:34;;;;;;;0.60;0.60;;;8.40;92.40;7.50;99121.00;;;;5114416;28;20198;-81
2022/01/30 01:24:04;;;;;;;0.73;0.73;;;8.20;94.60;7.40;99146.00;;;;5114441;28;20282;-77
2022/01/30 01:26:31;;;;;;;1.10;1.10;;;8.20;93.70;7.40;99134.00;;;;5114412;28;20819;-76
2022/01/30 01:28:58;;;;;;;0.60;0.60;;;8.20;93.50;7.40;99127.00;;;;5114083;28;20576;-76
2022/01/30 01:31:25;;;;;;;0.60;0.60;;;8.10;93.70;7.40;99130.00;;;;5114270;28;20275;-78
2022/01/30 01:34:14;;;;;;;0.60;0.60;;;8.20;93.20;7.40;99124.00;;;;5114184;28;20237;-77
2022/01/30 01:36:40;;;;;;;0.60;0.60;;;8.10;93.60;7.40;99117.00;;;;5114157;28;20193;-76
2022/01/30 01:39:07;;;;;;;0.60;0.60;;;8.20;93.60;7.40;99099.00;;;;5114037;28;20270;-75
2022/01/30 01:41:36;;;;;;;0.50;0.50;;;8.20;93.30;7.40;99111.00;;;;5113973;28;20291;-78
2022/01/30 01:44:03;;;;;;;0.50;0.50;;;8.20;93.30;7.40;99108.00;;;;5096360;28;20197;-75
2022/01/30 01:46:34;;;;;;;0.60;0.60;;;8.20;93.70;7.40;99117.00;;;;5096233;28;20212;-76
2022/01/30 01:49:02;;;;;;;0.60;0.60;;;8.20;94.00;7.40;99131.00;;;;5113973;28;20193;-77
2022/01/30 01:51:31;;;;;;;0.60;0.60;;;8.20;94.50;7.40;99103.00;;;;5113966;28;20236;-76
2022/01/30 01:54:00;;;;;;;0.73;0.73;;;8.20;94.70;7.30;99121.00;;;;5095909;28;20673;-76
2022/01/30 01:56:30;;;;;;;0.60;0.60;;;8.00;95.00;7.30;99134.00;;;;5115925;28;20249;-75
2022/01/30 01:58:57;;;;;;;0.53;0.53;;;8.10;95.10;7.40;99108.00;;;;5117382;28;20213;-76
2022/01/30 02:01:24;;;;;;;4.23;1.10;;;8.10;94.60;7.40;99118.00;;;;5117105;28;20682;-76
2022/01/30 02:03:54;;;;;;;0.50;0.50;;;8.10;94.80;7.40;99115.00;;;;5099242;28;20286;-76
2022/01/30 02:06:23;;;;;;;0.63;0.63;;;8.10;93.60;7.30;99119.00;;;;5117294;28;20206;-76
2022/01/30 02:08:54;;;;;;;0.57;0.57;;;8.10;93.70;7.40;99103.00;;;;5117079;28;20198;-76
2022/01/30 02:11:31;;;;;;;0.50;0.50;;;8.00;93.40;7.20;99089.00;;;;5117276;28;20262;-77
2022/01/30 02:14:19;;;;;;;0.70;0.70;;;8.00;93.60;7.20;99081.00;;;;5116995;28;20308;-76
2022/01/30 02:25:23;;;;;;;0.80;0.80;;;7.70;94.90;6.90;99104.00;;;;5116921;28;20221;-76
2022/01/30 02:27:55;;;;;;;0.50;0.50;;;7.70;95.30;6.90;99105.00;;;;5116949;28;20232;-76
2022/01/30 02:30:21;;;;;;;0.70;0.70;;;7.70;95.30;7.00;99107.00;;;;5116726;28;20233;-76
2022/01/30 02:32:51;;;;;;;0.60;0.60;;;7.70;95.40;7.00;99110.00;;;;5116803;28;20231;-74
2022/01/30 02:35:17;;;;;;;0.80;0.80;;;7.70;95.10;6.90;99110.00;;;;5116564;28;20224;-76
2022/01/30 02:37:47;;;;;;;0.70;0.70;;;7.70;95.80;6.90;99097.00;;;;5116773;28;20269;-75
2022/01/30 02:40:16;;;;;;;0.70;0.70;;;7.70;96.00;6.80;99107.00;;;;5116644;28;20256;-76
2022/01/30 02:42:47;;;;;;;0.80;0.80;;;7.60;96.00;6.80;99124.00;;;;5116642;28;20197;-75
2022/01/30 02:45:15;;;;;;;0.70;0.70;;;7.60;95.30;6.80;99125.00;;;;5116682;28;20527;-75
2022/01/30 02:47:54;;;;;;;0.47;0.47;;;7.60;95.20;6.70;99107.00;;;;5098706;28;20565;-75
2022/01/30 02:50:33;;;;;;;0.60;0.60;;;7.50;95.50;6.70;99091.00;;;;5116592;28;20689;-75
2022/01/30 02:53:04;;;;;;;0.60;0.60;;;7.50;95.30;6.70;99088.00;;;;5116383;28;20256;-75
2022/01/30 02:55:31;;;;;;;0.77;0.77;;;7.50;95.10;6.80;99082.00;;;;5116375;28;20307;-75
2022/01/30 02:57:57;;;;;;;0.60;0.60;;;7.50;94.90;6.70;99098.00;;;;5116353;28;20296;-76
2022/01/30 03:00:23;;;;;;;1.20;1.20;;;7.60;94.80;6.80;99097.00;;;;5116498;28;20190;-76
2022/01/30 03:02:50;;;;;;;0.53;0.53;;;7.60;94.80;6.70;99100.00;;;;5116246;28;20653;-76
2022/01/30 03:05:19;;;;;;;0.90;0.90;;;7.50;95.20;6.80;99104.00;;;;5116308;28;20207;-75
2022/01/30 03:07:45;;;;;;;0.50;0.50;;;7.50;95.30;6.70;99101.00;;;;5116195;28;20639;-75
2022/01/30 03:10:15;;;;;;;0.60;0.60;;;7.50;95.20;6.90;99117.00;;;;5116231;28;20197;-76
2022/01/30 03:12:44;;;;;;;1.43;1.33;;;7.60;95.00;6.90;99099.00;;;;5116266;28;20200;-76
2022/01/30 03:15:11;;;;;;;0.70;0.70;;;7.60;95.30;6.70;99099.00;;;;5114990;28;20244;-75
2022/01/30 03:17:40;;;;;;;0.60;0.60;;;7.50;94.90;6.70;99117.00;;;;5116211;28;20289;-75
2022/01/30 03:20:08;;;;;;;0.60;0.60;;;7.50;95.10;6.70;99116.00;;;;5115914;28;20233;-75
2022/01/30 03:22:35;;;;;;;0.80;0.80;;;7.50;95.10;6.60;99114.00;;;;5115959;28;20203;-75
2022/01/30 03:25:02;;;;;;;0.50;0.50;;;7.50;95.20;6.80;99139.00;;;;5115853;28;20202;-77
2022/01/30 03:27:30;;;;;;;0.50;0.50;;;7.50;95.00;6.80;99144.00;;;;5115791;28;20222;-75
2022/01/30 03:30:06;;;;;;;0.70;0.70;;;7.60;94.40;6.80;99146.00;;;;5115906;28;20197;-75
2022/01/30 03:32:34;;;;;;;0.70;0.70;;;7.50;94.70;6.80;99146.00;;;;5115752;28;20236;-75
2022/01/30 03:35:01;;;;;;;0.60;0.60;;;7.60;94.60;6.80;99161.00;;;;5097752;28;20652;-75
2022/01/30 03:37:30;;;;;;;0.50;0.50;;;7.60;94.30;6.70;99147.00;;;;5115450;28;20224;-75
2022/01/30 03:39:56;;;;;;;0.60;0.60;;;7.50;94.30;6.70;99153.00;;;;5115661;28;20204;-75
2022/01/30 03:42:23;;;;;;;0.80;0.80;;;7.50;94.80;6.70;99148.00;;;;5115620;28;20307;-74
2022/01/30 03:44:53;;;;;;;0.50;0.50;;;7.40;94.80;6.90;99146.00;;;;5115618;28;20512;-76
2022/01/30 03:47:20;;;;;;;0.50;0.50;;;7.50;94.10;6.80;99153.00;;;;5115679;28;20663;-75
2022/01/30 03:49:48;;;;;;;0.50;0.50;;;7.60;93.20;6.90;99151.00;;;;5115614;28;20241;-75
2022/01/30 03:52:17;;;;;;;0.60;0.60;;;;;6.90;99155.00;;;;5115784;28;20205;-76
2022/01/30 03:54:44;;;;;;;0.60;0.60;;;7.70;92.70;6.70;99157.00;;;;5115399;28;20236;-76
2022/01/30 03:57:11;;;;;;;0.50;0.50;;;7.60;93.50;6.90;99160.00;;;;5115505;28;20681;-76
2022/01/30 03:59:38;;;;;;;0.40;0.40;;;7.60;93.30;6.90;99147.00;;;;5115363;28;20228;-76
2022/01/30 04:02:07;;;;;;;0.70;0.70;;;7.70;93.10;6.80;99149.00;;;;5115494;28;20212;-77
2022/01/30 04:04:34;;;;;;;0.83;0.83;;;7.60;93.20;6.80;99163.00;;;;5115410;28;20289;-75
2022/01/30 04:07:01;;;;;;;0.60;0.60;;;7.60;93.40;6.80;99163.00;;;;5115338;28;20236;-76
2022/01/30 04:09:28;;;;;;;0.50;0.50;;;7.60;93.50;6.80;99163.00;;;;5097425;28;20632;-74
2022/01/30 04:11:56;;;;;;;0.90;0.90;;;7.50;93.70;6.70;99159.00;;;;5115283;28;20259;-76
2022/01/30 04:14:23;;;;;;;0.60;0.60;;;7.50;93.80;6.60;99160.00;;;;5115212;28;20215;-75
2022/01/30 04:16:50;;;;;;;0.80;0.80;;;7.50;93.90;6.60;99172.00;;;;5115234;28;20219;-76
2022/01/30 04:19:17;;;;;;;0.63;0.63;;;7.40;94.10;6.70;99172.00;;;;5114753;28;20691;-76
2022/01/30 04:21:47;;;;;;;0.50;0.50;;;7.50;93.60;6.70;99172.00;;;;5097335;28;20226;-76
2022/01/30 04:24:13;;;;;;;1.17;1.17;;;7.40;93.30;6.70;99174.00;;;;5115066;28;20225;-75
2022/01/30 04:26:42;;;;;;;0.60;0.60;;;7.50;93.10;6.60;99180.00;;;;5115084;28;20288;-76
2022/01/30 04:29:09;;;;;;;0.90;0.90;;;7.40;93.00;6.50;99175.00;;;;5115226;28;20192;-76
2022/01/30 04:31:36;;;;;;;0.73;0.73;;;7.30;93.40;6.60;99165.00;;;;5115028;28;20191;-76
2022/01/30 04:34:03;;;;;;;0.80;0.80;;;7.30;93.50;6.60;99162.00;;;;5114881;28;20306;-76
2022/01/30 04:36:37;;;;;;;0.70;0.70;;;7.40;93.00;6.40;99170.00;;;;5097748;28;20531;-76
2022/01/30 04:39:15;;;;;;;0.50;0.50;;;7.30;93.00;6.40;99173.00;;;;5115553;28;20221;-75
2022/01/30 04:42:01;;;;;;;0.60;0.60;;;7.20;93.90;6.40;99179.00;;;;5115959;28;20207;-75
2022/01/30 04:53:04;;;;;;;1.03;1.03;;;7.10;94.50;6.40;99189.00;;;;5127252;28;20455;-77
2022/01/30 04:58:21;;;;;;;1.33;1.33;;;7.20;93.90;6.30;99183.00;;;;5127068;28;20281;-76
2022/01/30 05:00:55;;;;;;;0.63;0.63;;;7.10;93.70;6.40;99188.00;;;;5127174;28;20373;-77
2022/01/30 05:03:48;;;;;;;0.73;0.73;;;7.20;93.50;6.40;99175.00;;;;5109378;28;20306;-76
2022/01/30 05:06:18;;;;;;;0.60;0.60;;;7.20;93.40;6.30;99183.00;;;;5121974;28;20178;-74
2022/01/30 05:08:46;;;;;;;1.03;1.03;;;7.10;93.60;6.10;99183.00;;;;5115111;28;20705;-76
2022/01/30 05:11:13;;;;;;;0.70;0.70;;;7.00;94.10;6.20;99180.00;;;;5114557;28;20287;-76
2022/01/30 05:13:45;;;;;;;0.80;0.80;;;6.90;94.30;6.30;99183.00;;;;5114530;28;20275;-76
2022/01/30 05:16:12;;;;;;;0.70;0.70;;;7.00;94.40;6.30;99184.00;;;;5114721;28;20194;-76
2022/01/30 05:18:39;;;;;;;0.60;0.60;;;7.00;93.90;6.20;99188.00;;;;5114656;28;20370;-76
2022/01/30 05:21:06;;;;;;;0.50;0.50;;;7.00;93.80;6.20;99187.00;;;;5097683;28;20198;-76
2022/01/30 05:23:33;;;;;;;0.70;0.70;;;7.00;93.80;6.10;99184.00;;;;5115784;28;20213;-76
2022/01/30 05:26:07;;;;;;;0.97;0.97;;;6.90;94.20;6.10;99187.00;;;;5115713;28;20195;-76
2022/01/30 05:28:34;;;;;;;0.70;0.70;;;6.90;95.30;6.00;99215.00;;;;5115290;28;20267;-76
2022/01/30 05:31:01;;;;;;;0.90;0.90;;;6.80;94.60;6.00;99219.00;;;;5117703;28;20178;-76
2022/01/30 05:33:29;;;;;;;0.60;0.60;;;6.80;94.60;6.00;99187.00;;;;5119709;28;20335;-75
2022/01/30 05:35:56;;;;;;;1.13;1.13;;;6.70;94.80;5.90;99232.00;;;;5119208;28;20229;-75
2022/01/30 05:38:26;;;;;;;0.80;0.80;;;6.70;95.00;5.80;99217.00;;;;5136271;28;20207;-76
2022/01/30 05:40:53;;;;;;;0.90;0.90;;;6.70;94.90;6.00;99223.00;;;;5130211;28;20277;-77
2022/01/30 05:43:22;;;;;;;1.03;1.03;;;6.70;94.90;5.90;99214.00;;;;5130254;28;20289;-76
2022/01/30 05:45:57;;;;;;;0.70;0.70;;;6.60;94.90;5.80;99224.00;;;;5130148;28;20226;-77
2022/01/30 05:48:25;;;;;;;0.70;0.70;;;6.70;95.00;5.90;99232.00;;;;5112454;28;20211;-76
2022/01/30 05:50:52;;;;;;;0.73;0.73;;;6.60;95.20;5.90;99240.00;;;;5130091;28;20194;-76
2022/01/30 05:53:21;;;;;;;2.33;1.83;;;6.60;95.50;5.80;99243.00;;;;5129878;28;20194;-76
2022/01/30 05:55:47;;;;;;;0.70;0.70;;;6.50;95.80;5.70;99262.00;;;;5122763;28;20218;-75
2022/01/30 05:58:13;;;;;;;0.87;0.87;;;6.50;96.00;5.70;99257.00;;;;5117457;28;20201;-76
2022/01/30 06:00:41;;;;;;;0.50;0.50;;;6.50;95.90;5.80;99271.00;;;;5117537;28;20198;-76
2022/01/30 06:03:08;;;;;;;1.33;1.33;;;6.50;96.80;5.60;99270.00;;;;5117364;28;20214;-76
2022/01/30 06:05:34;;;;;;;0.87;0.87;;;6.40;95.90;5.70;99277.00;;;;5117409;28;20242;-76
2022/01/30 06:08:11;;;;;;;0.53;0.53;;;6.50;95.90;5.70;99277.00;;;;5117228;28;20244;-76
2022/01/30 06:10:38;;;;;;;0.60;0.60;;;6.40;96.20;5.60;99277.00;;;;5117342;28;20212;-76
2022/01/30 06:13:07;;;;;;;0.83;0.83;;;6.50;95.70;5.70;99289.00;;;;5117192;28;20274;-76
2022/01/30 06:15:34;;;;;;;0.93;0.93;;;6.40;95.10;5.80;99285.00;;;;5117003;28;20659;-76
2022/01/30 06:18:01;;;;;;;0.70;0.70;;;6.50;95.20;5.80;99283.00;;;;5117053;28;20190;-76
2022/01/30 06:20:27;;;;;;;0.60;0.60;;;6.50;94.30;5.80;99298.00;;;;5117042;28;20313;-75
2022/01/30 06:22:54;;;;;;;0.77;0.77;;;6.50;93.40;5.70;99294.00;;;;5117018;28;20212;-76
2022/01/30 06:25:20;;;;;;;0.50;0.50;;;6.50;93.40;5.70;99289.00;;;;5116941;28;20222;-76
2022/01/30 06:27:47;;;;;;;0.53;0.53;;;6.50;93.20;5.70;99306.00;;;;5116957;28;20221;-76
2022/01/30 06:30:14;;;;;;;0.73;0.73;;;6.50;92.00;5.60;99306.00;;;;5116736;28;20206;-76
2022/01/30 06:32:40;;;;;;;0.70;0.70;;;6.40;92.50;5.50;99321.00;;;;5116821;28;20201;-75
2022/01/30 06:35:09;;;;;;;1.10;1.10;;;6.30;92.70;5.60;99309.00;;;;5116946;28;20259;-77
2022/01/30 06:37:35;;;;;;;0.60;0.60;;;6.40;92.60;5.50;99320.00;;;;5116716;28;20278;-76
2022/01/30 06:40:03;;;;;;;1.40;1.20;;;6.30;91.80;5.50;99325.00;;;;5116751;28;20201;-76
2022/01/30 06:42:30;;;;;;;1.27;1.17;;;6.30;91.90;5.50;99325.00;;;;5116364;28;20272;-76
2022/01/30 06:44:56;;;;;;;0.80;0.80;;;6.30;91.60;5.50;99324.00;;;;5116721;28;20614;-76
2022/01/30 06:47:25;;;;;;;0.70;0.70;;;6.30;91.50;5.40;99317.00;;;;5116476;28;20298;-76
2022/01/30 06:49:52;;;;;;;0.70;0.70;;;6.20;91.70;5.40;99326.00;;;;5116531;28;20194;-76
2022/01/30 06:52:19;;;;;;;0.60;0.60;;;6.20;91.70;5.30;99326.00;;;;5098873;28;20333;-76
2022/01/30 06:54:46;;;;;;;0.77;0.77;;;6.10;91.90;5.30;99321.00;;;;5116280;28;20221;-76
2022/01/30 06:57:12;;;;;;;1.03;1.03;;;6.10;92.10;5.30;99326.00;;;;5116230;28;20259;-76
2022/01/30 06:59:41;;;;;;;0.70;0.70;;;6.10;91.60;5.40;99334.00;;;;5116233;28;20609;-76
2022/01/30 07:02:09;;;;;;;0.70;0.70;;;6.20;90.90;5.40;99324.00;;;;5098478;28;20343;-76
2022/01/30 07:04:35;;;;;;;1.17;1.07;;;6.20;90.70;5.20;99334.00;;;;5116313;28;20237;-76
2022/01/30 07:07:03;;;;;;;0.50;0.50;;;6.10;90.80;5.20;99327.00;;;;5116312;28;20273;-76
2022/01/30 07:09:31;;;;;;;0.60;0.60;;;6.00;90.80;5.20;99334.00;;;;5116124;28;20210;-75
2022/01/30 07:11:57;;;;;;;0.50;0.50;;;6.00;91.20;5.30;99337.00;;;;5116385;28;20278;-76
2022/01/30 07:14:24;;;;;;;0.60;0.60;;;6.10;91.00;5.10;99345.00;;;;5116107;28;20616;-74
2022/01/30 07:16:50;;;;;;;7.80;1.13;;;6.00;90.40;5.30;99344.00;;;;5116100;28;20205;-76
2022/01/30 07:19:17;;;;;;;1.20;1.20;;;6.10;90.90;5.40;99355.00;;;;5116162;28;20194;-76
2022/01/30 07:21:43;;;;;;;0.83;0.83;;;6.10;90.40;5.40;99349.00;;;;5115909;28;20297;-75
2022/01/30 07:24:10;;;;;;;0.60;0.60;;;6.20;90.50;5.30;99358.00;;;;5098121;28;20308;-76
2022/01/30 07:26:37;;;;;;;0.70;0.70;;;6.10;90.10;5.20;99362.00;;;;5115779;28;20218;-76
2022/01/30 07:29:07;;;;;;;0.60;0.60;;;6.00;90.70;5.30;99366.00;;;;5115873;28;20198;-76
2022/01/30 07:31:35;;;;;;;0.60;0.60;;;6.10;90.50;5.40;99371.00;;;;5115736;28;20200;-76
2022/01/30 07:34:05;;;;;;;0.80;0.80;;;6.10;90.60;5.30;99373.00;;;;5115613;28;20300;-75
2022/01/30 07:36:35;;;;;;;0.60;0.60;;;6.10;90.90;5.40;99386.00;;;;5115736;28;20186;-76
2022/01/30 07:39:05;;;;;;;0.70;0.70;;;6.20;91.50;5.40;99387.00;;;;5097538;28;20222;-76
2022/01/30 07:41:34;;;;;;;1.17;1.13;;;6.30;91.50;5.40;99390.00;;;;5115564;28;20594;-76
2022/01/30 07:44:03;;;;;;;0.80;0.80;;;6.20;91.90;5.30;99405.00;;;;5115508;28;20242;-76
2022/01/30 07:46:30;;;;;;;0.87;0.87;;;6.20;92.70;5.30;99401.00;;;;5115950;28;20298;-75
2022/01/30 07:48:59;;;;;;;1.00;1.00;;;6.10;92.20;5.10;99401.00;;;;5097518;28;20312;-77
2022/01/30 07:51:26;;;;;;;0.87;0.87;;;6.10;92.30;5.30;99400.00;;;;5115555;28;20198;-77
2022/01/30 07:53:52;;;;;;;1.00;1.00;;;6.10;92.20;5.20;99398.00;;;;5114640;28;20340;-77
2022/01/30 07:56:19;;;;;;;1.43;1.33;;;6.10;92.70;5.40;99409.00;;;;5115459;28;20206;-76
2022/01/30 07:58:48;;;;;;;0.93;0.93;;;6.10;91.90;5.20;99417.00;;;;5097591;28;20201;-76
2022/01/30 08:01:15;;;;;;;0.60;0.60;;;6.10;91.80;5.20;99417.00;;;;5115292;28;20228;-76
2022/01/30 08:03:43;;;;;;;0.67;0.67;;;6.00;91.50;5.30;99424.00;;;;5115427;28;20613;-76
2022/01/30 08:06:12;;;;;;;4.67;1.37;;;6.10;91.20;5.30;99427.00;;;;5115475;28;20514;-77
2022/01/30 08:08:41;;;;;;;0.80;0.77;;;6.10;89.70;5.50;99434.00;;;;5115452;28;20194;-77
2022/01/30 08:11:09;;;;;;;0.67;0.67;;;6.10;89.70;5.50;99434.00;;;;5115110;28;20639;-76
2022/01/30 08:13:35;;;;;;;1.17;1.17;;;6.20;89.40;5.60;99432.00;;;;5115374;28;20528;-76
2022/01/30 08:16:02;;;;;;;2.17;1.33;;;6.30;89.40;5.70;99383.00;;;;5115098;28;20233;-76
2022/01/30 08:18:32;;;;;;;1.53;1.43;;;6.30;88.90;5.60;99425.00;;;;5115052;28;20534;-76
2022/01/30 08:20:59;;;;;;;0.83;0.83;;;6.30;87.90;5.50;99423.00;;;;5115091;28;20206;-76
2022/01/30 08:23:28;;;;;;;0.70;0.70;;;6.30;87.40;5.50;99419.00;;;;5115026;28;20625;-75
2022/01/30 08:25:54;;;;;;;1.27;1.27;;;6.30;87.20;5.50;99414.00;;;;5097480;28;20514;-76
2022/01/30 08:28:21;;;;;;;0.87;0.87;;;6.30;87.60;5.40;99408.00;;;;5114966;28;20232;-76
2022/01/30 08:30:47;;;;;;;1.23;1.03;;;6.20;87.00;5.40;99415.00;;;;5114963;28;20210;-76
2022/01/30 08:33:17;;;;;;;0.60;0.60;;;6.20;86.60;5.50;99404.00;;;;5114887;28;20191;-76
2022/01/30 08:35:45;;;;;;;0.93;0.93;;;6.30;85.60;5.50;99396.00;;;;5114904;28;20297;-76
2022/01/30 08:38:15;;;;;;;0.87;0.87;;;6.30;85.90;5.60;99405.00;;;;5096905;28;20289;-76
2022/01/30 08:40:42;;;;;;;0.50;0.50;;;6.40;85.20;5.50;99401.00;;;;5096764;28;20564;-76
2022/01/30 08:43:10;;;;;;;1.23;1.13;;;6.30;85.10;5.50;99397.00;;;;5114847;28;20332;-76
2022/01/30 08:45:37;;;;;;;0.87;0.87;;;6.30;84.80;5.50;99384.00;;;;5114842;28;20222;-76
2022/01/30 08:48:06;;;;;;;0.50;0.50;;;6.20;83.40;5.60;99420.00;;;;5114609;28;20277;-76
2022/01/30 08:50:33;;;;;;;1.03;1.03;;;6.30;82.00;5.60;99401.00;;;;5114425;28;20217;-76
2022/01/30 08:53:00;;;;;;;0.93;0.93;;;6.30;81.60;5.40;99399.00;;;;5114556;28;20665;-76
2022/01/30 08:55:29;;;;;;;0.90;0.90;;;6.30;82.10;5.60;99405.00;;;;5114443;28;20300;-75
2022/01/30 08:57:57;;;;;;;1.17;1.07;;;6.30;82.00;5.40;99404.00;;;;5114401;28;20226;-77
2022/01/30 09:00:24;;;;;;;0.63;0.63;;;6.30;80.90;5.40;99393.00;;;;5114667;28;20247;-77
2022/01/30 09:02:51;;;;;;;1.10;1.10;;;6.20;79.30;5.60;99390.00;;;;5114405;28;20661;-77
2022/01/30 09:05:18;;;;;;;0.60;0.60;;;6.20;80.90;5.50;99392.00;;;;5114238;28;20182;-77
2022/01/30 09:07:44;;;;;;;1.43;0.80;;;6.30;78.80;5.50;99389.00;;;;5114238;28;20305;-77
2022/01/30 09:10:12;;;;;;;5.60;1.57;;;6.40;78.10;5.50;99381.00;;;;5096535;28;20229;-77
2022/01/30 09:12:41;;;;;;;0.90;0.90;;;6.30;78.70;5.60;99388.00;;;;5114367;28;20250;-77
2022/01/30 09:15:11;;;;;;;0.57;0.57;;;6.40;78.50;5.60;99392.00;;;;5114273;28;20225;-76
2022/01/30 09:17:40;;;;;;;0.80;0.80;;;6.40;77.70;5.70;99388.00;;;;5114186;28;20281;-77
2022/01/30 09:20:11;;;;;;;0.90;0.90;;;6.50;78.10;5.60;99394.00;;;;5114184;28;20221;-77
2022/01/30 09:22:40;;;;;;;0.73;0.73;;;6.40;77.60;5.50;99394.00;;;;5114212;28;20669;-77
2022/01/30 09:25:09;;;;;;;0.70;0.70;;;6.30;79.00;5.60;99401.00;;;;5114225;28;20224;-78
2022/01/30 09:27:37;;;;;;;5.40;2.07;;;6.40;79.00;5.70;99397.00;;;;5114190;28;20253;-77
2022/01/30 09:30:06;;;;;;;0.70;0.70;;;6.40;78.50;5.80;99387.00;;;;5114120;28;20290;-77
2022/01/30 09:32:33;;;;;;;1.80;1.17;;;6.50;78.40;5.60;99399.00;;;;5114239;28;20198;-77
2022/01/30 09:35:00;;;;;;;0.73;0.73;;;6.40;78.20;5.70;99398.00;;;;5114040;28;20221;-78
2022/01/30 09:37:29;;;;;;;1.33;1.33;;;6.40;78.00;5.80;99407.00;;;;5114060;28;20633;-77
2022/01/30 09:39:57;;;;;;;0.73;0.73;;;6.50;77.20;5.90;99398.00;;;;5114056;28;20637;-77
2022/01/30 09:42:26;;;;;;;0.60;0.60;;;6.60;77.90;5.90;99349.00;;;;5114201;28;20227;-80
2022/01/30 09:44:53;;;;;;;0.60;0.60;;;6.60;76.30;5.80;99400.00;;;;5114050;28;20198;-79
2022/01/30 09:47:20;;;;;;;1.70;1.43;;;6.60;76.80;5.80;99424.00;;;;5095969;28;20212;-78
2022/01/30 09:49:49;;;;;;;4.57;1.40;;;6.60;78.60;5.70;99403.00;;;;5113866;28;20220;-78
2022/01/30 09:52:20;;;;;;;0.90;0.90;;;6.50;80.00;5.70;99407.00;;;;5113944;28;20282;-77
2022/01/30 09:54:48;;;;;;;0.97;0.97;;;6.50;80.70;6.00;99408.00;;;;5113827;28;20232;-79
2022/01/30 09:57:15;;;;;;;0.90;0.90;;;6.70;79.20;6.10;99408.00;;;;5113681;28;20253;-78
2022/01/30 09:59:42;;;;;;;0.80;0.80;;;6.70;78.90;6.10;99409.00;;;;5113753;28;20210;-81
2022/01/30 10:02:12;;;;;;;1.10;1.10;;;6.80;77.30;6.10;99414.00;;;;5113826;28;20653;-79
2022/01/30 10:04:39;;;;;;;1.20;1.20;;;6.90;75.70;6.10;99411.00;;;;5113889;28;20201;-79
2022/01/30 10:07:12;;;;;;;1.40;1.30;;;6.90;75.10;6.10;99407.00;;;;5113790;28;20222;-79
2022/01/30 10:09:47;;;;;;;1.57;1.47;;;6.80;74.20;6.20;99419.00;;;;5113879;28;20616;-80
2022/01/30 10:12:16;;;;;;;5.40;2.50;;;6.90;74.60;6.20;99429.00;;;;5113631;28;20224;-82
2022/01/30 10:14:52;;;;;;;1.90;1.80;;;6.80;74.90;6.20;99438.00;;;;5113601;28;20323;-77
2022/01/30 10:17:33;;;;;;;1.77;1.67;;;6.90;74.40;6.00;99443.00;;;;5115616;28;20320;-77
2022/01/30 10:20:11;;;;;;;0.90;0.90;;;6.80;74.10;6.20;99450.00;;;;5117332;28;20281;-78
2022/01/30 10:22:49;;;;;;;1.20;1.10;;;6.90;72.70;6.30;99447.00;;;;5099163;28;20225;-78
2022/01/30 10:25:24;;;;;;;0.90;0.90;;;6.90;69.10;6.30;99452.00;;;;5099267;28;20305;-82
2022/01/30 10:28:07;;;;;;;1.33;1.33;;;7.00;66.50;6.10;99453.00;;;;5116757;28;20251;-80
2022/01/30 10:30:44;;;;;;;1.97;0.97;;;6.80;65.40;6.00;99457.00;;;;5116922;28;20273;-78
2022/01/30 10:33:14;;;;;;;2.23;1.37;;;6.80;62.70;6.00;99454.00;;;;5116784;28;20702;-76
2022/01/30 10:35:55;;;;;;;3.80;1.57;;;6.70;61.20;6.10;99454.00;;;;5098913;28;20575;-82
2022/01/30 10:38:27;;;;;;;0.60;0.60;;;6.80;60.80;6.20;99451.00;;;;5116711;28;20221;-80
2022/01/30 10:40:59;;;;;;;1.00;1.00;;;6.90;60.30;6.40;99456.00;;;;5099049;28;20209;-80
2022/01/30 10:43:49;;;;;;;0.80;0.80;;;7.00;59.70;6.40;99464.00;;;;5116727;28;20222;-78
2022/01/30 10:46:21;;;;;;;1.73;1.27;;;7.10;58.40;6.60;99458.00;;;;5116772;28;20276;-79
2022/01/30 10:48:55;;;;;;;0.93;0.93;;;7.10;56.70;6.40;99452.00;;;;5116601;28;20243;-78
2022/01/30 10:51:22;;;;;;;0.70;0.70;;;7.10;55.70;6.50;99458.00;;;;5098738;28;20294;-77
2022/01/30 10:53:52;;;;;;;1.10;1.10;;;7.10;56.00;6.40;99446.00;;;;5116273;28;20224;-78
2022/01/30 10:56:21;;;;;;;1.77;1.00;;;7.10;56.40;6.30;99444.00;;;;5116336;28;20300;-82
2022/01/30 10:59:07;;;;;;;1.63;1.53;;;7.10;55.50;6.50;99450.00;;;;5098953;28;20592;-81
2022/01/30 11:01:34;;;;;;;1.60;1.50;;;7.20;55.00;6.40;99451.00;;;;5116552;28;20212;-80
2022/01/30 11:04:03;;;;;;;0.90;0.90;;;7.10;56.20;6.50;99453.00;;;;5116451;28;20213;-79
2022/01/30 11:06:36;;;;;;;0.57;0.57;;;7.20;55.60;6.60;99450.00;;;;5098506;28;20300;-77
2022/01/30 11:09:10;;;;;;;2.50;1.40;;;7.20;55.20;6.50;99444.00;;;;5098620;28;20214;-79
2022/01/30 11:11:41;;;;;;;0.53;0.53;;;7.20;55.00;6.70;99439.00;;;;5098481;28;20220;-82
2022/01/30 11:14:17;;;;;;;0.93;0.93;;;7.30;56.10;6.90;99430.00;;;;5098219;28;20319;-80
2022/01/30 11:17:03;;;;;;;0.60;0.60;;;7.50;56.00;7.00;99432.00;;;;5116204;28;20202;-82
2022/01/30 11:19:34;;;;;;;1.00;1.00;;;7.70;54.10;6.90;99431.00;;;;5116243;28;20313;-81
2022/01/30 11:22:05;;;;;;;0.90;0.90;;;7.60;55.10;6.80;99435.00;;;;5116637;28;20209;-80
2022/01/30 11:24:38;;;;;;;1.43;1.33;;;7.60;56.80;6.70;99446.00;;;;5116118;28;20251;-80
2022/01/30 11:27:10;;;;;;;1.07;1.00;;;7.50;58.50;6.60;99439.00;;;;5116129;28;20290;-80
2022/01/30 11:29:37;;;;;;;1.00;1.00;;;7.50;58.70;6.80;99448.00;;;;5115052;28;20382;-80
2022/01/30 11:32:06;;;;;;;1.17;1.17;;;7.50;59.50;6.90;99452.00;;;;5116146;28;20595;-81
2022/01/30 11:34:35;;;;;;;1.03;1.03;;;7.50;58.80;6.70;99438.00;;;;5115877;28;20225;-82
2022/01/30 11:37:03;;;;;;;0.83;0.80;;;7.50;56.00;6.50;99445.00;;;;5116067;28;20651;-82
2022/01/30 11:39:30;;;;;;;0.70;0.70;;;7.30;55.90;6.80;99432.00;;;;5116087;28;20222;-82
2022/01/30 11:42:09;;;;;;;1.00;1.00;;;7.50;55.90;7.20;99428.00;;;;5116191;28;20212;-84
2022/01/30 11:44:37;;;;;;;0.90;0.90;;;7.80;55.50;7.50;99426.00;;;;5097929;28;20228;-79
2022/01/30 11:47:27;;;;;;;0.70;0.70;;;8.10;54.90;7.50;99424.00;;;;5115702;28;20278;-79
2022/01/30 11:50:07;;;;;;;1.87;1.77;;;8.10;54.90;7.50;99414.00;;;;5077756;28;20670;-80